createdAt,value
2019-02-06T00:00:33.547Z,-6.5
2019-02-06T00:01:34.896Z,-6.5
2019-02-06T00:02:34.890Z,-6.5
2019-02-06T00:03:34.840Z,-6.5
2019-02-06T00:04:34.787Z,-6.5
2019-02-06T00:05:34.786Z,-6.4
2019-02-06T00:06:35.258Z,-6.5
2019-02-06T00:07:35.672Z,-6.5
2019-02-06T00:08:36.626Z,-6.5
2019-02-06T00:09:36.673Z,-6.4
2019-02-06T00:10:36.682Z,-6.3
2019-02-06T00:11:36.679Z,-6.3
2019-02-06T00:12:36.709Z,-6.4
2019-02-06T00:13:36.834Z,-6.4
2019-02-06T00:14:36.916Z,-6.5
2019-02-06T00:15:37.038Z,-6.6
2019-02-06T00:16:38.048Z,-6.6
2019-02-06T00:17:38.176Z,-6.6
2019-02-06T00:18:38.258Z,-6.7
2019-02-06T00:19:38.317Z,-6.7
2019-02-06T00:20:38.247Z,-6.8
2019-02-06T00:21:38.187Z,-6.7
2019-02-06T00:22:38.687Z,-6.7
2019-02-06T00:23:39.318Z,-6.7
2019-02-06T00:24:39.257Z,-6.7
2019-02-06T00:25:39.189Z,-6.8
2019-02-06T00:26:39.554Z,-6.7
2019-02-06T00:27:39.519Z,-6.7
2019-02-06T00:28:39.457Z,-6.8
2019-02-06T00:29:39.401Z,-6.8
2019-02-06T00:30:40.028Z,-6.8
2019-02-06T00:31:40.975Z,-6.8
2019-02-06T00:32:40.909Z,-6.8
2019-02-06T00:33:40.840Z,-6.8
2019-02-06T00:34:40.772Z,-6.8
2019-02-06T00:35:40.714Z,-6.9
2019-02-06T00:36:41.065Z,-6.9
2019-02-06T00:37:40.974Z,-6.9
2019-02-06T00:38:41.493Z,-6.8
2019-02-06T00:39:42.313Z,-6.8
2019-02-06T00:40:42.239Z,-6.9
2019-02-06T00:41:42.161Z,-6.8
2019-02-06T00:42:42.067Z,-6.9
2019-02-06T00:43:41.990Z,-7
2019-02-06T00:44:41.913Z,-7.1
2019-02-06T00:45:41.851Z,-7.1
2019-02-06T00:56:41.419Z,-6.5
2019-02-06T00:57:41.358Z,-6.5
2019-02-06T00:58:41.267Z,-6.6
2019-02-06T00:59:41.177Z,-6.5
2019-02-06T01:00:41.099Z,-6.6
2019-02-06T01:01:41.671Z,-6.6
2019-02-06T01:02:42.279Z,-6.6
2019-02-06T01:03:42.209Z,-6.6
2019-02-06T01:04:42.129Z,-6.6
2019-02-06T01:05:42.068Z,-6.7
2019-02-06T01:06:43.881Z,-6.7
2019-02-06T01:07:43.807Z,-6.7
2019-02-06T01:08:43.851Z,-6.8
2019-02-06T01:09:44.471Z,-6.8
2019-02-06T01:10:45.433Z,-6.7
2019-02-06T01:11:45.381Z,-6.7
2019-02-06T01:12:45.305Z,-6.7
2019-02-06T01:13:45.231Z,-6.6
2019-02-06T01:14:45.151Z,-6.6
2019-02-06T01:15:45.072Z,-6.6
2019-02-06T01:16:45.473Z,-6.4
2019-02-06T01:17:45.989Z,-6.3
2019-02-06T01:18:47.291Z,-6.3
2019-02-06T01:19:47.301Z,-6.1
2019-02-06T01:20:47.225Z,-6
2019-02-06T01:21:47.169Z,-6
2019-02-06T01:22:47.089Z,-6
2019-02-06T01:23:47.007Z,-6
2019-02-06T01:24:47.085Z,-6
2019-02-06T01:25:46.998Z,-6.1
2019-02-06T01:26:47.384Z,-6.2
2019-02-06T01:27:47.311Z,-6.3
2019-02-06T01:28:47.247Z,-6.4
2019-02-06T01:29:47.301Z,-6.5
2019-02-06T01:30:47.231Z,-6.6
2019-02-06T01:31:47.249Z,-6.7
2019-02-06T01:32:47.829Z,-6.7
2019-02-06T01:33:49.073Z,-6.8
2019-02-06T01:34:48.979Z,-6.9
2019-02-06T01:35:50.871Z,-6.9
2019-02-06T01:36:51.263Z,-7
2019-02-06T01:37:51.181Z,-7
2019-02-06T01:38:51.182Z,-7
2019-02-06T01:39:51.095Z,-6.9
2019-02-06T01:40:51.793Z,-6.8
2019-02-06T01:41:52.755Z,-6.7
2019-02-06T01:42:52.675Z,-6.7
2019-02-06T01:43:52.582Z,-6.6
2019-02-06T01:44:52.509Z,-6.5
2019-02-06T01:45:52.449Z,-6.4
2019-02-06T01:46:52.879Z,-6.5
2019-02-06T01:47:52.820Z,-6.5
2019-02-06T01:48:53.137Z,-6.6
2019-02-06T01:49:54.487Z,-6.6
2019-02-06T01:50:54.410Z,-6.7
2019-02-06T01:51:54.341Z,-6.7
2019-02-06T01:52:54.263Z,-6.7
2019-02-06T01:53:54.207Z,-6.7
2019-02-06T01:54:54.131Z,-6.8
2019-02-06T01:55:54.295Z,-6.8
2019-02-06T01:56:54.697Z,-6.8
2019-02-06T01:57:54.606Z,-6.9
2019-02-06T01:58:54.541Z,-6.9
2019-02-06T01:59:54.475Z,-6.9
2019-02-06T02:00:54.417Z,-7
2019-02-06T02:01:54.347Z,-7
2019-02-06T02:02:54.273Z,-7
2019-02-06T02:03:54.825Z,-7
2019-02-06T02:04:56.043Z,-7.1
2019-02-06T02:06:03.323Z,-7.1
2019-02-06T02:07:03.715Z,-7.2
2019-02-06T02:08:03.667Z,-7.2
2019-02-06T02:09:03.703Z,-7.2
2019-02-06T02:10:03.749Z,-7.2
2019-02-06T02:11:03.683Z,-7.3
2019-02-06T02:12:03.626Z,-7.3
2019-02-06T02:13:03.545Z,-7.2
2019-02-06T02:14:03.493Z,-7.3
2019-02-06T02:15:03.406Z,-7.3
2019-02-06T02:16:03.336Z,-7.4
2019-02-06T02:17:04.961Z,-7.3
2019-02-06T02:18:04.866Z,-7.3
2019-02-06T02:19:04.811Z,-7.3
2019-02-06T02:20:05.200Z,-7.3
2019-02-06T02:21:05.269Z,-7.2
2019-02-06T02:22:05.186Z,-7.3
2019-02-06T02:23:05.152Z,-7.3
2019-02-06T02:24:05.074Z,-7.3
2019-02-06T02:25:04.995Z,-7.3
2019-02-06T02:26:04.896Z,-7.3
2019-02-06T02:27:05.278Z,-7.3
2019-02-06T02:28:05.807Z,-7.3
2019-02-06T02:29:06.654Z,-7.3
2019-02-06T02:30:06.574Z,-7.3
2019-02-06T02:31:06.536Z,-7.2
2019-02-06T02:32:06.476Z,-7.2
2019-02-06T02:33:06.420Z,-7.2
2019-02-06T02:34:06.366Z,-7.2
2019-02-06T02:35:06.288Z,-7.2
2019-02-06T02:36:17.097Z,-7.3
2019-02-06T03:07:29.370Z,-6.5
2019-02-06T03:08:29.318Z,-6.5
2019-02-06T03:09:29.762Z,-6.6
2019-02-06T03:10:29.875Z,-6.6
2019-02-06T03:11:29.819Z,-6.6
2019-02-06T03:12:29.750Z,-6.7
2019-02-06T03:13:29.674Z,-6.7
2019-02-06T03:14:29.632Z,-6.8
2019-02-06T03:15:29.726Z,-6.8
2019-02-06T03:16:29.704Z,-6.8
2019-02-06T03:17:33.677Z,-6.9
2019-02-06T03:18:33.630Z,-6.9
2019-02-06T03:19:33.650Z,-6.9
2019-02-06T03:20:33.570Z,-6.8
2019-02-06T03:21:33.630Z,-6.9
2019-02-06T03:22:33.768Z,-6.9
2019-02-06T03:23:33.693Z,-7
2019-02-06T03:24:33.619Z,-7
2019-02-06T03:25:34.008Z,-7
2019-02-06T03:26:34.784Z,-7
2019-02-06T03:27:35.158Z,-7
2019-02-06T03:28:35.098Z,-7
2019-02-06T03:29:35.020Z,-7
2019-02-06T03:30:34.966Z,-7
2019-02-06T03:31:35.000Z,-7
2019-02-06T03:32:34.988Z,-7
2019-02-06T03:33:35.756Z,-7.1
2019-02-06T03:34:36.789Z,-7.1
2019-02-06T03:35:36.729Z,-7.1
2019-02-06T03:36:41.423Z,-7.1
2019-02-06T03:37:41.847Z,-7.1
2019-02-06T03:38:41.766Z,-7.1
2019-02-06T03:39:41.690Z,-7.2
2019-02-06T03:40:41.618Z,-7.2
2019-02-06T03:41:42.026Z,-7.2
2019-02-06T03:42:42.770Z,-7.1
2019-02-06T03:43:42.739Z,-7.1
2019-02-06T03:44:42.670Z,-7.1
2019-02-06T03:45:42.593Z,-7.1
2019-02-06T03:46:42.515Z,-7.1
2019-02-06T03:47:42.883Z,-7.1
2019-02-06T03:48:42.825Z,-7
2019-02-06T03:49:44.083Z,-7.1
2019-02-06T03:50:44.853Z,-7
2019-02-06T03:51:44.779Z,-7
2019-02-06T03:52:44.753Z,-7
2019-02-06T03:53:44.690Z,-7
2019-02-06T03:54:44.621Z,-6.9
2019-02-06T03:55:44.572Z,-6.9
2019-02-06T03:56:44.484Z,-6.9
2019-02-06T03:57:45.737Z,-6.9
2019-02-06T03:58:47.047Z,-6.9
2019-02-06T03:59:46.984Z,-6.9
2019-02-06T04:00:46.914Z,-6.9
2019-02-06T04:01:46.933Z,-6.9
2019-02-06T04:02:46.902Z,-6.9
2019-02-06T04:03:46.844Z,-6.9
2019-02-06T04:04:46.764Z,-6.9
2019-02-06T04:05:46.682Z,-7
2019-02-06T04:07:02.817Z,-7
2019-02-06T04:08:04.273Z,-6.9
2019-02-06T04:09:04.181Z,-6.9
2019-02-06T04:10:04.126Z,-6.9
2019-02-06T04:11:04.099Z,-6.9
2019-02-06T04:12:04.017Z,-6.9
2019-02-06T04:13:03.967Z,-6.9
2019-02-06T04:14:03.949Z,-6.9
2019-02-06T04:15:04.494Z,-6.9
2019-02-06T04:16:05.695Z,-6.8
2019-02-06T04:17:05.602Z,-6.8
2019-02-06T04:18:06.037Z,-6.8
2019-02-06T04:19:06.031Z,-6.7
2019-02-06T04:20:05.995Z,-6.8
2019-02-06T04:21:05.957Z,-6.8
2019-02-06T04:22:05.879Z,-6.9
2019-02-06T04:23:06.459Z,-7
2019-02-06T04:24:07.369Z,-7
2019-02-06T04:25:07.290Z,-7
2019-02-06T04:26:07.221Z,-7
2019-02-06T04:27:07.143Z,-7.1
2019-02-06T04:28:08.167Z,-7.2
2019-02-06T04:29:08.083Z,-7.3
2019-02-06T04:30:08.000Z,-7.3
2019-02-06T04:31:08.298Z,-7.3
2019-02-06T04:32:09.358Z,-7.4
2019-02-06T04:33:09.289Z,-7.4
2019-02-06T04:34:09.254Z,-7.5
2019-02-06T04:35:09.195Z,-7.6
2019-02-06T04:36:09.145Z,-7.6
2019-02-06T04:37:09.078Z,-7.6
2019-02-06T04:38:09.499Z,-7.6
2019-02-06T04:39:10.124Z,-7.6
2019-02-06T04:40:11.431Z,-7.6
2019-02-06T04:41:11.481Z,-7.5
2019-02-06T04:42:11.411Z,-7.4
2019-02-06T04:43:11.359Z,-7.4
2019-02-06T04:44:11.286Z,-7.4
2019-02-06T04:45:11.187Z,-7.4
2019-02-06T04:46:11.385Z,-7.4
2019-02-06T04:47:11.293Z,-7.3
2019-02-06T04:48:13.191Z,-7.3
2019-02-06T04:49:13.130Z,-7.3
2019-02-06T04:50:13.064Z,-7.2
2019-02-06T04:51:13.002Z,-7.2
2019-02-06T04:52:13.007Z,-7.2
2019-02-06T04:53:12.946Z,-7.2
2019-02-06T04:54:13.361Z,-7.2
2019-02-06T04:55:13.452Z,-7.2
2019-02-06T04:56:13.519Z,-7.2
2019-02-06T04:57:13.449Z,-7.3
2019-02-06T04:58:13.885Z,-7.4
2019-02-06T04:59:13.816Z,-7.4
2019-02-06T05:00:16.740Z,-7.5
2019-02-06T05:01:16.718Z,-7.5
2019-02-06T05:02:17.124Z,-7.5
2019-02-06T05:03:17.077Z,-7.5
2019-02-06T05:04:17.063Z,-7.6
2019-02-06T05:05:16.961Z,-7.7
2019-02-06T05:06:16.889Z,-7.7
2019-02-06T05:07:20.239Z,-7.8
2019-02-06T05:18:20.556Z,-6.6
2019-02-06T05:19:21.829Z,-6.5
2019-02-06T05:20:21.892Z,-6.6
2019-02-06T05:21:21.831Z,-6.6
2019-02-06T05:22:21.776Z,-6.5
2019-02-06T05:23:21.706Z,-6.5
2019-02-06T05:24:21.640Z,-6.6
2019-02-06T05:25:21.561Z,-6.6
2019-02-06T05:26:21.490Z,-6.6
2019-02-06T05:27:21.456Z,-6.7
2019-02-06T05:28:21.899Z,-6.7
2019-02-06T05:29:21.866Z,-6.7
2019-02-06T05:30:21.810Z,-6.7
2019-02-06T05:31:21.762Z,-6.7
2019-02-06T05:32:21.728Z,-6.7
2019-02-06T05:33:22.344Z,-6.8
2019-02-06T05:34:22.911Z,-6.7
2019-02-06T05:35:22.834Z,-6.7
2019-02-06T05:36:22.786Z,-6.7
2019-02-06T05:37:32.944Z,-6.8
2019-02-06T05:38:33.387Z,-6.8
2019-02-06T05:39:33.418Z,-6.9
2019-02-06T05:40:33.434Z,-6.9
2019-02-06T05:41:33.366Z,-7
2019-02-06T05:42:33.704Z,-7
2019-02-06T05:43:34.778Z,-6.9
2019-02-06T05:44:34.723Z,-6.9
2019-02-06T05:45:34.666Z,-6.9
2019-02-06T05:46:34.600Z,-6.9
2019-02-06T05:47:34.532Z,-6.9
2019-02-06T05:48:34.986Z,-6.9
2019-02-06T05:49:34.927Z,-6.9
2019-02-06T05:50:34.892Z,-6.9
2019-02-06T05:51:34.825Z,-7
2019-02-06T05:52:34.809Z,-7
2019-02-06T05:53:34.733Z,-7
2019-02-06T05:54:34.669Z,-7
2019-02-06T05:55:34.668Z,-7
2019-02-06T05:56:34.629Z,-7.1
2019-02-06T05:57:35.165Z,-7.1
2019-02-06T05:58:36.908Z,-7.1
2019-02-06T05:59:36.924Z,-7.2
2019-02-06T06:00:36.916Z,-7.2
2019-02-06T06:01:36.846Z,-7.2
2019-02-06T06:02:36.786Z,-7.3
2019-02-06T06:03:36.724Z,-7.3
2019-02-06T06:04:36.831Z,-7.4
2019-02-06T06:05:36.750Z,-7.4
2019-02-06T06:06:38.111Z,-7.4
2019-02-06T06:07:46.238Z,-7.4
2019-02-06T06:08:46.648Z,-7.4
2019-02-06T06:09:46.590Z,-7.4
2019-02-06T06:10:46.526Z,-7.4
2019-02-06T06:11:46.454Z,-7.4
2019-02-06T06:12:46.406Z,-7.3
2019-02-06T06:13:46.900Z,-7.3
2019-02-06T06:14:47.507Z,-7.2
2019-02-06T06:15:47.489Z,-7.2
2019-02-06T06:16:47.446Z,-7.3
2019-02-06T06:17:47.458Z,-7.3
2019-02-06T06:18:47.935Z,-7.4
2019-02-06T06:19:47.876Z,-7.4
2019-02-06T06:20:47.892Z,-7.5
2019-02-06T06:21:48.504Z,-7.5
2019-02-06T06:22:49.734Z,-7.5
2019-02-06T06:23:49.722Z,-7.5
2019-02-06T06:24:49.706Z,-7.5
2019-02-06T06:25:49.672Z,-7.5
2019-02-06T06:26:49.614Z,-7.5
2019-02-06T06:27:49.572Z,-7.6
2019-02-06T06:28:50.233Z,-7.6
2019-02-06T06:29:50.179Z,-7.6
2019-02-06T06:30:50.086Z,-7.6
2019-02-06T06:31:50.202Z,-7.6
2019-02-06T06:32:50.244Z,-7.6
2019-02-06T06:33:52.615Z,-7.7
2019-02-06T06:34:52.537Z,-7.7
2019-02-06T06:35:52.489Z,-7.7
2019-02-06T06:36:52.837Z,-7.8
2019-02-06T06:38:03.438Z,-7.8
2019-02-06T06:39:04.088Z,-7.8
2019-02-06T06:40:04.075Z,-7.8
2019-02-06T06:41:04.028Z,-7.9
2019-02-06T06:42:03.961Z,-7.9
2019-02-06T06:43:03.895Z,-7.9
2019-02-06T06:44:03.838Z,-7.9
2019-02-06T06:45:03.794Z,-8
2019-02-06T06:46:04.295Z,-8
2019-02-06T06:47:04.908Z,-7.9
2019-02-06T06:48:04.837Z,-7.9
2019-02-06T06:49:05.351Z,-8
2019-02-06T06:50:05.317Z,-8
2019-02-06T06:51:05.261Z,-7.9
2019-02-06T06:52:05.205Z,-7.9
2019-02-06T06:53:05.152Z,-7.9
2019-02-06T06:54:05.681Z,-7.8
2019-02-06T06:55:06.732Z,-7.9
2019-02-06T06:56:06.711Z,-7.8
2019-02-06T06:57:06.689Z,-7.9
2019-02-06T06:58:06.712Z,-7.9
2019-02-06T06:59:09.890Z,-7.8
2019-02-06T07:00:09.873Z,-7.9
2019-02-06T07:01:11.595Z,-7.9
2019-02-06T07:02:12.173Z,-7.9
2019-02-06T07:03:12.307Z,-8
2019-02-06T07:04:12.234Z,-8
2019-02-06T07:05:12.180Z,-8.1
2019-02-06T07:06:12.137Z,-8.1
2019-02-06T07:07:12.111Z,-8.1
2019-02-06T07:08:14.085Z,-8.2
2019-02-06T07:09:14.477Z,-8.1
2019-02-06T07:10:15.065Z,-8.2
2019-02-06T07:11:15.433Z,-8.1
2019-02-06T07:12:15.376Z,-8.2
2019-02-06T07:13:15.312Z,-8.2
2019-02-06T07:14:15.228Z,-8.1
2019-02-06T07:15:15.128Z,-8.1
2019-02-06T07:16:15.038Z,-8
2019-02-06T07:17:14.996Z,-8
2019-02-06T07:18:15.487Z,-8
2019-02-06T07:19:17.036Z,-8
2019-02-06T07:20:16.965Z,-8
2019-02-06T07:21:16.897Z,-8
2019-02-06T07:22:16.845Z,-7.9
2019-02-06T07:23:16.789Z,-7.8
2019-02-06T07:24:16.718Z,-7.8
2019-02-06T07:25:16.649Z,-7.8
2019-02-06T07:26:17.229Z,-7.7
2019-02-06T07:27:20.807Z,-7.7
2019-02-06T07:28:21.152Z,-7.7
2019-02-06T07:29:21.655Z,-7.7
2019-02-06T07:30:21.557Z,-7.6
2019-02-06T07:31:21.489Z,-7.6
2019-02-06T07:32:21.403Z,-7.5
2019-02-06T07:33:21.319Z,-7.4
2019-02-06T07:34:21.909Z,-7.3
2019-02-06T07:35:22.516Z,-7.2
2019-02-06T07:36:22.454Z,-7
2019-02-06T07:37:22.472Z,-6.9
2019-02-06T07:38:25.089Z,-6.8
2019-02-06T07:39:26.579Z,-6.7
2019-02-06T07:40:26.516Z,-6.6
2019-02-06T07:41:26.462Z,-6.4
2019-02-06T07:42:26.984Z,-6.3
2019-02-06T07:43:28.133Z,-6.3
2019-02-06T07:44:28.077Z,-6.1
2019-02-06T07:45:27.998Z,-6
2019-02-06T07:46:27.941Z,-5.9
2019-02-06T07:47:27.875Z,-5.7
2019-02-06T07:48:27.807Z,-5.5
2019-02-06T07:49:28.187Z,-5.5
2019-02-06T07:50:28.782Z,-5.3
2019-02-06T07:51:30.029Z,-5.2
2019-02-06T07:52:29.933Z,-5.1
2019-02-06T07:53:29.867Z,-5
2019-02-06T07:54:29.815Z,-4.9
2019-02-06T07:55:29.755Z,-4.8
2019-02-06T07:56:29.674Z,-4.7
2019-02-06T07:57:29.607Z,-4.7
2019-02-06T07:58:30.129Z,-4.5
2019-02-06T07:59:32.161Z,-4.5
2019-02-06T08:00:32.101Z,-4.4
2019-02-06T08:01:32.023Z,-4.3
2019-02-06T08:02:31.980Z,-4.1
2019-02-06T08:03:31.911Z,-4.1
2019-02-06T08:04:31.841Z,-4
2019-02-06T08:05:31.819Z,-4
2019-02-06T08:06:31.751Z,-3.9
2019-02-06T08:07:31.689Z,-3.9
2019-02-06T08:08:36.922Z,-3.8
2019-02-06T08:09:37.297Z,-3.7
2019-02-06T08:10:37.254Z,-3.6
2019-02-06T08:11:37.241Z,-3.4
2019-02-06T08:12:37.176Z,-3.4
2019-02-06T08:13:37.111Z,-3.3
2019-02-06T08:14:37.469Z,-3.2
2019-02-06T08:15:38.770Z,-3.1
2019-02-06T08:16:38.699Z,-3
2019-02-06T08:17:38.653Z,-2.9
2019-02-06T08:18:38.600Z,-3
2019-02-06T08:19:38.997Z,-2.8
2019-02-06T08:20:38.963Z,-2.7
2019-02-06T08:21:38.911Z,-2.6
2019-02-06T08:22:38.831Z,-2.5
2019-02-06T08:23:38.933Z,-2.4
2019-02-06T08:24:38.867Z,-2.3
2019-02-06T08:25:38.795Z,-2.2
2019-02-06T08:26:38.841Z,-2.2
2019-02-06T08:27:38.736Z,-2.2
2019-02-06T08:28:38.755Z,-2.2
2019-02-06T08:29:39.600Z,-2.1
2019-02-06T08:30:40.361Z,-2
2019-02-06T08:31:40.319Z,-2
2019-02-06T08:32:40.254Z,-2
2019-02-06T08:33:40.201Z,-1.9
2019-02-06T08:34:40.135Z,-1.9
2019-02-06T08:35:40.080Z,-1.8
2019-02-06T08:36:40.030Z,-1.8
2019-02-06T08:37:40.542Z,-1.7
2019-02-06T08:38:50.878Z,-1.7
2019-02-06T08:39:51.685Z,-1.6
2019-02-06T08:40:51.603Z,-1.5
2019-02-06T08:41:51.525Z,-1.4
2019-02-06T08:42:51.554Z,-1.3
2019-02-06T08:43:51.504Z,-1.2
2019-02-06T08:44:51.429Z,-1.1
2019-02-06T08:45:51.391Z,-0.9
2019-02-06T08:46:51.893Z,-0.9
2019-02-06T08:47:52.729Z,-0.9
2019-02-06T08:48:52.681Z,-0.7
2019-02-06T08:49:53.076Z,-0.7
2019-02-06T08:50:53.026Z,-0.6
2019-02-06T08:51:53.023Z,-0.6
2019-02-06T08:52:52.947Z,-0.5
2019-02-06T08:53:52.897Z,-0.5
2019-02-06T08:54:53.456Z,-0.4
2019-02-06T08:55:54.741Z,-0.4
2019-02-06T08:56:54.678Z,-0.4
2019-02-06T08:57:54.618Z,-0.3
2019-02-06T08:58:54.533Z,-0.3
2019-02-06T08:59:54.938Z,-0.2
2019-02-06T09:00:54.865Z,-0.2
2019-02-06T09:01:54.806Z,-0.2
2019-02-06T09:02:54.738Z,-0.1
2019-02-06T09:03:54.662Z,-0.1
2019-02-06T09:04:56.609Z,0
2019-02-06T09:05:56.544Z,0
2019-02-06T09:06:56.500Z,0.1
2019-02-06T09:07:56.520Z,0.1
2019-02-06T09:09:00.630Z,0.1
2019-02-06T09:10:01.015Z,0.2
2019-02-06T09:11:01.550Z,0.2
2019-02-06T09:12:02.694Z,0.3
2019-02-06T09:13:02.665Z,0.2
2019-02-06T09:14:02.647Z,0.2
2019-02-06T09:15:02.588Z,0.1
2019-02-06T09:16:02.500Z,0
2019-02-06T09:17:02.449Z,0
2019-02-06T09:18:02.368Z,-0.1
2019-02-06T09:19:03.028Z,-0.2
2019-02-06T09:20:05.160Z,-0.6
2019-02-06T09:21:05.104Z,-0.5
2019-02-06T09:22:05.078Z,-0.4
2019-02-06T09:23:05.026Z,-0.3
2019-02-06T09:24:04.967Z,-0.4
2019-02-06T09:25:04.924Z,-0.3
2019-02-06T09:26:04.848Z,-0.5
2019-02-06T09:27:04.780Z,-0.4
2019-02-06T09:28:04.728Z,-0.5
2019-02-06T09:29:04.657Z,-0.4
2019-02-06T09:30:05.020Z,-0.3
2019-02-06T09:31:04.941Z,-0.2
2019-02-06T09:32:04.870Z,-0.1
2019-02-06T09:33:04.854Z,-0.1
2019-02-06T09:34:05.434Z,-0.1
2019-02-06T09:35:07.285Z,-0.1
2019-02-06T09:36:07.202Z,-0.1
2019-02-06T09:37:07.132Z,0
2019-02-06T09:38:07.096Z,0
2019-02-06T09:39:12.658Z,0.1
2019-02-06T09:40:13.054Z,0.1
2019-02-06T09:41:12.973Z,0.1
2019-02-06T09:42:13.108Z,0.2
2019-02-06T09:43:13.082Z,0.2
2019-02-06T09:44:13.016Z,0.1
2019-02-06T09:45:12.938Z,0.1
2019-02-06T09:46:12.858Z,-0.1
2019-02-06T09:47:12.814Z,-0.2
2019-02-06T09:48:12.765Z,-0.2
2019-02-06T09:49:15.672Z,-0.1
2019-02-06T09:50:16.662Z,-0.2
2019-02-06T09:51:20.366Z,-0.3
2019-02-06T09:52:21.596Z,-0.2
2019-02-06T09:55:21.072Z,0.1
2019-02-06T10:00:20.734Z,0.8
2019-02-06T10:01:22.263Z,0.8
2019-02-06T10:02:22.244Z,0.8
2019-02-06T10:03:22.153Z,0.8
2019-02-06T10:04:22.082Z,0.7
2019-02-06T10:05:22.042Z,0.7
2019-02-06T10:06:22.443Z,0.7
2019-02-06T10:07:23.088Z,0.8
2019-02-06T10:08:23.102Z,0.6
2019-02-06T10:09:23.827Z,0.6
2019-02-06T10:10:24.255Z,0.5
2019-02-06T10:11:24.194Z,0.4
2019-02-06T10:12:24.215Z,0.4
2019-02-06T10:13:24.212Z,0.4
2019-02-06T10:14:24.802Z,0.4
2019-02-06T10:15:25.791Z,0.2
2019-02-06T10:16:25.711Z,0.2
2019-02-06T10:17:25.914Z,0.3
2019-02-06T10:18:25.843Z,0.1
2019-02-06T10:19:25.789Z,-0.1
2019-02-06T10:20:26.205Z,0.1
2019-02-06T10:21:26.103Z,0.1
2019-02-06T10:22:26.627Z,0.2
2019-02-06T10:23:27.843Z,0.2
2019-02-06T10:25:27.584Z,0.2
2019-02-06T10:28:27.062Z,0.5
2019-02-06T10:29:27.103Z,0.5
2019-02-06T10:30:28.070Z,0.5
2019-02-06T10:31:29.328Z,0.6
2019-02-06T10:32:29.274Z,0.6
2019-02-06T10:33:29.214Z,0.6
2019-02-06T10:34:29.165Z,0.6
2019-02-06T10:35:29.076Z,0.5
2019-02-06T10:36:29.005Z,0.5
2019-02-06T10:37:29.863Z,0.4
2019-02-06T10:38:29.851Z,0.4
2019-02-06T10:39:35.384Z,0.3
2019-02-06T10:40:35.784Z,0.3
2019-02-06T10:41:35.729Z,0.3
2019-02-06T10:42:35.637Z,0.2
2019-02-06T10:43:36.612Z,0.1
2019-02-06T10:44:36.548Z,0
2019-02-06T10:45:36.480Z,-0.1
2019-02-06T10:46:36.929Z,0
2019-02-06T10:47:37.831Z,0
2019-02-06T10:48:37.762Z,0
2019-02-06T10:49:37.719Z,0
2019-02-06T10:50:38.117Z,0
2019-02-06T10:51:38.043Z,0.1
2019-02-06T10:52:37.991Z,0.2
2019-02-06T10:53:37.964Z,0.2
2019-02-06T10:54:38.505Z,0.2
2019-02-06T10:55:39.491Z,0.1
2019-02-06T10:56:39.410Z,0.1
2019-02-06T10:57:39.363Z,0.1
2019-02-06T10:58:39.300Z,0.1
2019-02-06T10:59:39.268Z,0.1
2019-02-06T11:00:39.678Z,0.1
2019-02-06T11:01:39.691Z,0.1
2019-02-06T11:02:39.629Z,0.1
2019-02-06T11:03:39.784Z,0.2
2019-02-06T11:04:39.729Z,0.2
2019-02-06T11:05:39.687Z,0.3
2019-02-06T11:06:39.630Z,0.2
2019-02-06T11:07:39.536Z,0.2
2019-02-06T11:08:39.452Z,0.2
2019-02-06T11:09:47.118Z,0.3
2019-02-06T11:10:48.292Z,0.3
2019-02-06T11:11:49.441Z,0.3
2019-02-06T11:12:49.375Z,0.3
2019-02-06T11:13:50.526Z,0.3
2019-02-06T11:14:50.501Z,0.4
2019-02-06T11:15:50.447Z,0.5
2019-02-06T11:16:50.377Z,0.6
2019-02-06T11:17:50.294Z,0.5
2019-02-06T11:18:51.057Z,0.5
2019-02-06T11:19:52.131Z,0.6
2019-02-06T11:20:52.558Z,0.6
2019-02-06T11:21:52.492Z,0.6
2019-02-06T11:22:52.421Z,0.6
2019-02-06T11:23:52.348Z,0.6
2019-02-06T11:24:52.286Z,0.7
2019-02-06T11:25:52.257Z,0.7
2019-02-06T11:26:52.807Z,0.7
2019-02-06T11:27:53.889Z,0.7
2019-02-06T11:28:53.884Z,0.8
2019-02-06T11:29:53.814Z,0.9
2019-02-06T11:30:57.572Z,0.8
2019-02-06T11:31:57.519Z,0.9
2019-02-06T11:33:57.215Z,0.9
2019-02-06T11:34:57.814Z,1
2019-02-06T11:36:00.029Z,1.1
2019-02-06T11:36:59.971Z,1.1
2019-02-06T11:37:59.941Z,1.1
2019-02-06T11:38:59.872Z,1
2019-02-06T11:41:00.040Z,1.1
2019-02-06T11:41:59.988Z,1.1
2019-02-06T11:43:00.640Z,1.1
2019-02-06T11:44:01.620Z,1.1
2019-02-06T11:45:01.542Z,1.1
2019-02-06T11:46:01.472Z,1.1
2019-02-06T11:47:01.426Z,1.1
2019-02-06T11:48:01.362Z,1.1
2019-02-06T11:49:01.310Z,1
2019-02-06T11:50:01.234Z,1
2019-02-06T11:51:02.386Z,0.9
2019-02-06T11:52:03.636Z,0.8
2019-02-06T11:53:03.714Z,0.8
2019-02-06T11:54:05.960Z,0.8
2019-02-06T11:55:09.008Z,0.8
2019-02-06T11:56:08.932Z,0.9
2019-02-06T11:57:08.900Z,1
2019-02-06T11:58:08.820Z,1.1
2019-02-06T11:59:09.200Z,1.2
2019-02-06T12:00:09.305Z,1.3
2019-02-06T12:01:09.732Z,1.3
2019-02-06T12:02:09.766Z,1.3
2019-02-06T12:03:09.684Z,1.3
2019-02-06T12:04:09.610Z,1.4
2019-02-06T12:05:09.530Z,1.4
2019-02-06T12:06:09.469Z,1.4
2019-02-06T12:07:10.068Z,1.4
2019-02-06T12:08:13.303Z,1.3
2019-02-06T12:09:13.250Z,1.4
2019-02-06T12:10:13.190Z,1.4
2019-02-06T12:11:13.568Z,1.4
2019-02-06T12:12:13.494Z,1.3
2019-02-06T12:13:13.420Z,1.3
2019-02-06T12:14:13.377Z,1.2
2019-02-06T12:15:13.868Z,1.3
2019-02-06T12:16:15.012Z,1.2
2019-02-06T12:17:15.038Z,1.3
2019-02-06T12:18:15.082Z,1.2
2019-02-06T12:19:15.016Z,1.2
2019-02-06T12:20:14.924Z,1.2
2019-02-06T12:21:18.637Z,1.1
2019-02-06T12:22:18.556Z,1
2019-02-06T12:23:19.158Z,1
2019-02-06T12:24:32.468Z,1
2019-02-06T12:25:35.732Z,1
2019-02-06T12:26:37.040Z,1
2019-02-06T12:27:37.002Z,1
2019-02-06T12:28:36.917Z,1
2019-02-06T12:29:36.864Z,1
2019-02-06T12:30:36.775Z,0.8
2019-02-06T12:31:37.128Z,0.8
2019-02-06T12:32:37.064Z,0.9
2019-02-06T12:33:37.423Z,0.9
2019-02-06T12:34:37.332Z,0.9
2019-02-06T12:35:37.264Z,0.9
2019-02-06T12:36:37.168Z,0.8
2019-02-06T12:37:37.120Z,0.7
2019-02-06T12:38:37.077Z,0.7
2019-02-06T12:39:37.028Z,0.7
2019-02-06T12:40:37.618Z,0.7
2019-02-06T12:41:39.471Z,0.7
2019-02-06T12:42:39.414Z,0.7
2019-02-06T12:43:39.333Z,0.7
2019-02-06T12:44:39.246Z,0.8
2019-02-06T12:45:39.176Z,0.8
2019-02-06T12:46:39.112Z,0.9
2019-02-06T12:48:39.018Z,1.1
2019-02-06T12:49:38.944Z,1.2
2019-02-06T12:50:38.934Z,1.2
2019-02-06T12:51:40.474Z,1.2
2019-02-06T12:52:40.406Z,1.2
2019-02-06T12:53:40.350Z,1.2
2019-02-06T12:54:40.932Z,1.2
2019-02-06T12:55:41.695Z,1.2
2019-02-06T12:56:41.664Z,1.1
2019-02-06T12:57:41.614Z,1.1
2019-02-06T12:58:41.615Z,1.2
2019-02-06T12:59:41.577Z,1.2
2019-02-06T13:00:41.541Z,1.1
2019-02-06T13:01:41.942Z,1.2
2019-02-06T13:02:42.502Z,1.2
2019-02-06T13:03:43.669Z,1.2
2019-02-06T13:04:43.627Z,1.2
2019-02-06T13:05:43.563Z,1.2
2019-02-06T13:06:43.588Z,1.1
2019-02-06T13:07:43.532Z,1.1
2019-02-06T13:08:43.485Z,1.1
2019-02-06T13:09:43.406Z,1.1
2019-02-06T13:10:43.334Z,1.1
2019-02-06T13:11:43.730Z,1.2
2019-02-06T13:12:43.663Z,1.2
2019-02-06T13:13:45.977Z,1.2
2019-02-06T13:14:45.980Z,1.3
2019-02-06T13:15:48.010Z,1.3
2019-02-06T13:16:47.961Z,1.3
2019-02-06T13:17:47.986Z,1.3
2019-02-06T13:18:47.953Z,1.2
2019-02-06T13:19:49.014Z,1.2
2019-02-06T13:20:52.121Z,1.2
2019-02-06T13:21:52.521Z,1.2
2019-02-06T13:22:52.441Z,1.2
2019-02-06T13:23:52.372Z,1.2
2019-02-06T13:24:52.292Z,1.3
2019-02-06T13:25:52.217Z,1.2
2019-02-06T13:26:52.693Z,1.2
2019-02-06T13:27:53.994Z,1.2
2019-02-06T13:28:53.953Z,1.2
2019-02-06T13:29:53.873Z,1.2
2019-02-06T13:30:53.820Z,1.2
2019-02-06T13:31:54.198Z,1.2
2019-02-06T13:32:54.226Z,1.2
2019-02-06T13:33:54.169Z,1.1
2019-02-06T13:34:54.493Z,1.1
2019-02-06T13:35:55.893Z,1
2019-02-06T13:36:55.822Z,0.8
2019-02-06T13:37:55.753Z,0.8
2019-02-06T13:38:55.684Z,0.6
2019-02-06T13:39:55.763Z,0.6
2019-02-06T13:40:55.757Z,0.5
2019-02-06T13:41:56.245Z,0.6
2019-02-06T13:42:56.191Z,0.6
2019-02-06T13:43:57.445Z,0.6
2019-02-06T13:44:57.369Z,0.6
2019-02-06T13:45:57.273Z,0.6
2019-02-06T13:46:57.191Z,0.6
2019-02-06T13:47:57.134Z,0.6
2019-02-06T13:48:57.071Z,0.6
2019-02-06T13:49:57.344Z,0.6
2019-02-06T13:50:57.575Z,0.6
2019-02-06T13:51:58.461Z,0.6
2019-02-06T13:52:58.492Z,0.6
2019-02-06T13:53:58.411Z,0.6
2019-02-06T13:54:58.368Z,0.6
2019-02-06T13:55:58.297Z,0.6
2019-02-06T13:56:58.245Z,0.6
2019-02-06T13:57:58.757Z,0.7
2019-02-06T13:58:59.680Z,0.7
2019-02-06T13:59:59.616Z,0.8
2019-02-06T14:00:59.556Z,0.7
2019-02-06T14:01:59.991Z,0.7
2019-02-06T14:03:00.015Z,0.6
2019-02-06T14:04:00.036Z,0.6
2019-02-06T14:04:59.974Z,0.6
2019-02-06T14:06:00.778Z,0.6
2019-02-06T14:07:01.681Z,0.5
2019-02-06T14:08:01.617Z,0.5
2019-02-06T14:09:01.549Z,0.6
2019-02-06T14:10:01.501Z,0.5
2019-02-06T14:11:01.787Z,0.4
2019-02-06T14:12:02.179Z,0.4
2019-02-06T14:13:02.411Z,0.4
2019-02-06T14:14:02.839Z,0.4
2019-02-06T14:15:03.392Z,0.4
2019-02-06T14:16:03.355Z,0.5
2019-02-06T14:17:03.283Z,0.4
2019-02-06T14:18:03.321Z,0.4
2019-02-06T14:19:03.255Z,0.4
2019-02-06T14:20:03.218Z,0.5
2019-02-06T14:21:03.133Z,0.5
2019-02-06T14:22:04.208Z,0.5
2019-02-06T14:23:05.385Z,0.6
2019-02-06T14:24:05.440Z,0.5
2019-02-06T14:25:05.380Z,0.5
2019-02-06T14:26:05.290Z,0.5
2019-02-06T14:27:05.235Z,0.5
2019-02-06T14:28:05.161Z,0.5
2019-02-06T14:29:05.211Z,0.6
2019-02-06T14:30:05.749Z,0.5
2019-02-06T14:31:06.982Z,0.5
2019-02-06T14:32:07.419Z,0.5
2019-02-06T14:33:07.360Z,0.5
2019-02-06T14:34:07.293Z,0.6
2019-02-06T14:35:07.209Z,0.6
2019-02-06T14:36:07.128Z,0.7
2019-02-06T14:37:07.166Z,0.6
2019-02-06T14:38:07.699Z,0.7
2019-02-06T14:39:08.667Z,0.7
2019-02-06T14:40:08.579Z,0.6
2019-02-06T14:41:09.485Z,0.7
2019-02-06T14:42:09.897Z,0.7